sensor_id;sensor_type;location;lat;lon;timestamp;temperature;humidity
42885;DHT22;28534;48.100;11.584;2022-07-23T00:03:33;25.50;57.30
42885;DHT22;28534;48.100;11.584;2022-07-23T00:13:35;25.40;56.80
42885;DHT22;28534;48.100;11.584;2022-07-23T00:23:38;25.50;57.60
42885;DHT22;28534;48.100;11.584;2022-07-23T00:33:40;25.50;56.80
42885;DHT22;28534;48.100;11.584;2022-07-23T00:43:43;25.50;57.30
42885;DHT22;28534;48.100;11.584;2022-07-23T00:53:45;25.50;56.70
42885;DHT22;28534;48.100;11.584;2022-07-23T01:03:48;25.50;56.70
42885;DHT22;28534;48.100;11.584;2022-07-23T01:13:50;25.50;56.70
42885;DHT22;28534;48.100;11.584;2022-07-23T01:23:53;25.40;56.20
42885;DHT22;28534;48.100;11.584;2022-07-23T01:33:55;25.30;56.30
42885;DHT22;28534;48.100;11.584;2022-07-23T01:43:59;24.80;58.10
42885;DHT22;28534;48.100;11.584;2022-07-23T01:54:01;24.90;56.50
42885;DHT22;28534;48.100;11.584;2022-07-23T02:04:04;25.20;56.60
42885;DHT22;28534;48.100;11.584;2022-07-23T02:14:06;25.40;56.10
42885;DHT22;28534;48.100;11.584;2022-07-23T02:24:09;25.50;56.10
42885;DHT22;28534;48.100;11.584;2022-07-23T02:34:11;25.50;56.00
42885;DHT22;28534;48.100;11.584;2022-07-23T02:44:14;25.50;56.30
42885;DHT22;28534;48.100;11.584;2022-07-23T02:54:16;25.60;56.70
42885;DHT22;28534;48.100;11.584;2022-07-23T03:04:19;25.60;57.70
42885;DHT22;28534;48.100;11.584;2022-07-23T03:14:21;25.60;57.20
42885;DHT22;28534;48.100;11.584;2022-07-23T03:24:24;25.60;57.50
42885;DHT22;28534;48.100;11.584;2022-07-23T03:34:46;25.60;57.80
42885;DHT22;28534;48.100;11.584;2022-07-23T03:44:49;25.60;58.00
42885;DHT22;28534;48.100;11.584;2022-07-23T03:54:51;25.60;58.20
42885;DHT22;28534;48.100;11.584;2022-07-23T04:04:54;25.60;58.30
42885;DHT22;28534;48.100;11.584;2022-07-23T04:14:56;25.60;58.50
42885;DHT22;28534;48.100;11.584;2022-07-23T04:24:59;25.70;58.60
42885;DHT22;28534;48.100;11.584;2022-07-23T04:35:01;25.70;58.70
42885;DHT22;28534;48.100;11.584;2022-07-23T04:45:05;25.70;58.80
42885;DHT22;28534;48.100;11.584;2022-07-23T04:55:08;25.70;58.90
42885;DHT22;28534;48.100;11.584;2022-07-23T05:05:11;25.70;59.00
42885;DHT22;28534;48.100;11.584;2022-07-23T05:15:13;25.70;59.10
42885;DHT22;28534;48.100;11.584;2022-07-23T05:25:16;25.70;59.10
42885;DHT22;28534;48.100;11.584;2022-07-23T05:35:18;25.70;59.20
42885;DHT22;28534;48.100;11.584;2022-07-23T05:45:21;25.70;59.80
42885;DHT22;28534;48.100;11.584;2022-07-23T05:55:23;25.60;58.50
42885;DHT22;28534;48.100;11.584;2022-07-23T06:05:26;25.50;57.30
42885;DHT22;28534;48.100;11.584;2022-07-23T06:15:28;25.50;57.60
42885;DHT22;28534;48.100;11.584;2022-07-23T06:25:32;25.50;57.50
42885;DHT22;28534;48.100;11.584;2022-07-23T06:35:34;25.50;57.80
42885;DHT22;28534;48.100;11.584;2022-07-23T06:45:37;25.40;58.00
42885;DHT22;28534;48.100;11.584;2022-07-23T06:55:39;25.50;60.20
42885;DHT22;28534;48.100;11.584;2022-07-23T07:05:42;25.40;60.10
42885;DHT22;28534;48.100;11.584;2022-07-23T07:15:44;25.40;59.10
42885;DHT22;28534;48.100;11.584;2022-07-23T07:25:47;25.40;58.80
42885;DHT22;28534;48.100;11.584;2022-07-23T07:35:49;25.50;59.00
42885;DHT22;28534;48.100;11.584;2022-07-23T07:45:52;25.50;58.70
42885;DHT22;28534;48.100;11.584;2022-07-23T07:55:54;25.50;59.60
42885;DHT22;28534;48.100;11.584;2022-07-23T08:05:57;25.50;58.90
42885;DHT22;28534;48.100;11.584;2022-07-23T08:15:59;25.50;58.70
42885;DHT22;28534;48.100;11.584;2022-07-23T08:26:02;25.50;59.00
42885;DHT22;28534;48.100;11.584;2022-07-23T08:36:04;25.50;58.70
42885;DHT22;28534;48.100;11.584;2022-07-23T08:46:07;25.40;58.60
42885;DHT22;28534;48.100;11.584;2022-07-23T08:56:10;25.40;58.50
42885;DHT22;28534;48.100;11.584;2022-07-23T09:06:13;25.40;58.30
42885;DHT22;28534;48.100;11.584;2022-07-23T09:16:17;25.40;58.40
42885;DHT22;28534;48.100;11.584;2022-07-23T09:26:29;25.40;58.30
42885;DHT22;28534;48.100;11.584;2022-07-23T09:36:31;25.50;58.20
42885;DHT22;28534;48.100;11.584;2022-07-23T09:46:34;25.50;58.80
42885;DHT22;28534;48.100;11.584;2022-07-23T09:56:36;25.50;57.60
42885;DHT22;28534;48.100;11.584;2022-07-23T10:06:41;25.50;58.10
42885;DHT22;28534;48.100;11.584;2022-07-23T10:16:45;25.60;58.60
42885;DHT22;28534;48.100;11.584;2022-07-23T10:26:54;25.80;58.90
42885;DHT22;28534;48.100;11.584;2022-07-23T10:37:03;25.80;58.10
42885;DHT22;28534;48.100;11.584;2022-07-23T10:47:10;25.90;58.60
42885;DHT22;28534;48.100;11.584;2022-07-23T10:57:21;25.90;57.90
42885;DHT22;28534;48.100;11.584;2022-07-23T11:07:25;25.90;57.40
42885;DHT22;28534;48.100;11.584;2022-07-23T11:17:27;25.90;57.40
42885;DHT22;28534;48.100;11.584;2022-07-23T11:27:38;25.90;57.20
42885;DHT22;28534;48.100;11.584;2022-07-23T11:37:40;25.90;57.70
42885;DHT22;28534;48.100;11.584;2022-07-23T11:47:43;25.90;57.70
42885;DHT22;28534;48.100;11.584;2022-07-23T11:57:46;25.90;57.80
42885;DHT22;28534;48.100;11.584;2022-07-23T12:07:50;25.90;57.80
42885;DHT22;28534;48.100;11.584;2022-07-23T12:17:53;25.90;57.90
42885;DHT22;28534;48.100;11.584;2022-07-23T12:28:02;25.90;58.40
42885;DHT22;28534;48.100;11.584;2022-07-23T12:38:05;25.90;57.80
42885;DHT22;28534;48.100;11.584;2022-07-23T12:48:16;25.90;57.90
42885;DHT22;28534;48.100;11.584;2022-07-23T12:58:19;25.90;58.20
42885;DHT22;28534;48.100;11.584;2022-07-23T13:08:26;25.90;61.00
42885;DHT22;28534;48.100;11.584;2022-07-23T13:18:28;25.90;58.80
42885;DHT22;28534;48.100;11.584;2022-07-23T13:28:31;25.90;58.70
42885;DHT22;28534;48.100;11.584;2022-07-23T13:38:33;26.00;58.50
42885;DHT22;28534;48.100;11.584;2022-07-23T13:48:36;26.00;58.00
42885;DHT22;28534;48.100;11.584;2022-07-23T13:58:38;26.00;57.80
42885;DHT22;28534;48.100;11.584;2022-07-23T14:08:42;25.90;57.40
42885;DHT22;28534;48.100;11.584;2022-07-23T14:18:44;25.90;58.20
42885;DHT22;28534;48.100;11.584;2022-07-23T14:28:47;25.90;57.40
42885;DHT22;28534;48.100;11.584;2022-07-23T14:38:49;25.90;57.20
42885;DHT22;28534;48.100;11.584;2022-07-23T14:48:52;25.80;57.10
42885;DHT22;28534;48.100;11.584;2022-07-23T14:58:54;25.80;56.90
42885;DHT22;28534;48.100;11.584;2022-07-23T15:08:57;25.80;57.00
42885;DHT22;28534;48.100;11.584;2022-07-23T15:19:01;25.90;57.10
42885;DHT22;28534;48.100;11.584;2022-07-23T15:29:04;25.90;56.90
42885;DHT22;28534;48.100;11.584;2022-07-23T15:39:07;26.00;57.00
42885;DHT22;28534;48.100;11.584;2022-07-23T15:49:10;26.00;56.90
42885;DHT22;28534;48.100;11.584;2022-07-23T15:59:15;26.10;57.00
42885;DHT22;28534;48.100;11.584;2022-07-23T16:09:18;26.20;62.60
42885;DHT22;28534;48.100;11.584;2022-07-23T16:19:19;26.30;60.00
42885;DHT22;28534;48.100;11.584;2022-07-23T16:29:23;26.30;60.10
42885;DHT22;28534;48.100;11.584;2022-07-23T16:39:24;26.40;59.10
42885;DHT22;28534;48.100;11.584;2022-07-23T16:49:27;26.40;57.60
42885;DHT22;28534;48.100;11.584;2022-07-23T16:59:29;26.30;57.50
42885;DHT22;28534;48.100;11.584;2022-07-23T17:09:33;26.30;57.80
42885;DHT22;28534;48.100;11.584;2022-07-23T17:19:35;26.30;58.00
42885;DHT22;28534;48.100;11.584;2022-07-23T17:29:38;26.30;58.40
42885;DHT22;28534;48.100;11.584;2022-07-23T17:39:40;26.30;58.80
42885;DHT22;28534;48.100;11.584;2022-07-23T17:49:44;26.20;59.00
42885;DHT22;28534;48.100;11.584;2022-07-23T17:59:45;26.20;59.10
42885;DHT22;28534;48.100;11.584;2022-07-23T18:09:48;26.20;59.10
42885;DHT22;28534;48.100;11.584;2022-07-23T18:19:50;26.20;59.30
42885;DHT22;28534;48.100;11.584;2022-07-23T18:29:53;26.20;60.80
42885;DHT22;28534;48.100;11.584;2022-07-23T18:39:55;26.10;60.30
42885;DHT22;28534;48.100;11.584;2022-07-23T18:49:58;26.10;60.20
42885;DHT22;28534;48.100;11.584;2022-07-23T19:00:01;26.10;60.20
42885;DHT22;28534;48.100;11.584;2022-07-23T19:10:06;26.00;60.40
42885;DHT22;28534;48.100;11.584;2022-07-23T19:20:10;26.00;60.50
42885;DHT22;28534;48.100;11.584;2022-07-23T19:30:13;26.00;60.20
42885;DHT22;28534;48.100;11.584;2022-07-23T19:40:15;26.00;60.20
42885;DHT22;28534;48.100;11.584;2022-07-23T19:50:18;26.00;60.20
42885;DHT22;28534;48.100;11.584;2022-07-23T20:00:21;26.00;60.10
42885;DHT22;28534;48.100;11.584;2022-07-23T20:10:24;26.00;60.00
42885;DHT22;28534;48.100;11.584;2022-07-23T20:20:27;26.00;60.00
42885;DHT22;28534;48.100;11.584;2022-07-23T20:30:30;26.00;59.90
42885;DHT22;28534;48.100;11.584;2022-07-23T20:40:32;26.00;59.90
42885;DHT22;28534;48.100;11.584;2022-07-23T20:50:36;26.00;59.90
42885;DHT22;28534;48.100;11.584;2022-07-23T21:00:38;26.00;59.90
42885;DHT22;28534;48.100;11.584;2022-07-23T21:10:41;26.00;59.90
42885;DHT22;28534;48.100;11.584;2022-07-23T21:20:43;26.00;59.80
42885;DHT22;28534;48.100;11.584;2022-07-23T21:31:04;26.00;59.80
42885;DHT22;28534;48.100;11.584;2022-07-23T21:41:06;26.00;59.80
42885;DHT22;28534;48.100;11.584;2022-07-23T21:51:09;26.00;59.80
42885;DHT22;28534;48.100;11.584;2022-07-23T22:01:11;26.00;59.80
42885;DHT22;28534;48.100;11.584;2022-07-23T22:11:15;25.90;59.70
42885;DHT22;28534;48.100;11.584;2022-07-23T22:21:16;25.90;59.80
42885;DHT22;28534;48.100;11.584;2022-07-23T22:31:20;26.00;59.80
42885;DHT22;28534;48.100;11.584;2022-07-23T22:41:22;25.90;59.70
42885;DHT22;28534;48.100;11.584;2022-07-23T22:51:25;25.90;60.50
42885;DHT22;28534;48.100;11.584;2022-07-23T23:01:27;26.00;59.80
42885;DHT22;28534;48.100;11.584;2022-07-23T23:11:30;25.90;59.80
42885;DHT22;28534;48.100;11.584;2022-07-23T23:21:32;25.90;59.80
42885;DHT22;28534;48.100;11.584;2022-07-23T23:31:35;25.90;60.40
42885;DHT22;28534;48.100;11.584;2022-07-23T23:41:37;26.00;59.80
42885;DHT22;28534;48.100;11.584;2022-07-23T23:51:40;25.90;59.70
